Limestone, Arkansas
Current Conditions -  °F | °C
As of 3:32 AM on Friday 19 Dec 2014 (Local Time) from KHRO Reporting Station
Haze Haze  
Wind Chill: 33°   Ceiling: 500
Heat Index: 37°   Visibility: 6mi
Dew Point: 36°   Wind: 5mph
Humidity: 96%   Direction: 30°NNE
Pressure: 30.16"   Gusts: NA
Location:  35.8413°N, 93.3507°W
Report Text: KHRO 190932Z AUTO 03004KT 6SM BR OVC005 03/02 A3016 RMK AO2 T00280022
Loading
Personal Weather Stations






























Interactive Weather Map New forecast layout! Learn more

10-Day Weather Forecast

Advertisements
Track Severe Weather on mobile